createdAt,value
2023-05-18T00:02:47.948Z,81
2023-05-18T00:07:54.006Z,81
2023-05-18T00:13:00.116Z,81
2023-05-18T00:18:05.217Z,81.5
2023-05-18T00:23:11.326Z,82.5
2023-05-18T00:28:17.423Z,82.5
2023-05-18T00:33:23.516Z,82
2023-05-18T00:38:29.621Z,82.5
2023-05-18T00:43:35.712Z,82
2023-05-18T00:48:41.813Z,83
2023-05-18T00:53:47.920Z,82.5
2023-05-18T00:58:54.008Z,83.5
2023-05-18T01:04:00.103Z,84
2023-05-18T01:09:06.231Z,83
2023-05-18T01:14:12.304Z,83.5
2023-05-18T01:19:18.413Z,83
2023-05-18T01:24:23.531Z,84.5
2023-05-18T01:29:29.635Z,84.5
2023-05-18T01:34:35.712Z,84.5
2023-05-18T01:39:41.819Z,84.5
2023-05-18T01:44:47.916Z,84.5
2023-05-18T01:49:54.021Z,84.5
2023-05-18T01:55:00.099Z,85
2023-05-18T02:00:06.200Z,84.5
2023-05-18T02:05:12.310Z,84.5
2023-05-18T02:10:18.399Z,84.5
2023-05-18T02:15:24.482Z,84.5
2023-05-18T02:20:30.597Z,84.5
2023-05-18T02:25:36.698Z,84.5
2023-05-18T02:30:41.809Z,84.5
2023-05-18T02:35:47.894Z,86
2023-05-18T02:40:54.011Z,84.5
2023-05-18T02:46:00.092Z,84.5
2023-05-18T02:51:06.232Z,85
2023-05-18T02:56:12.308Z,85
2023-05-18T03:01:18.398Z,84.5
2023-05-18T03:06:24.490Z,84.5
2023-05-18T03:11:30.594Z,84.5
2023-05-18T03:16:36.689Z,85
2023-05-18T03:21:42.795Z,84
2023-05-18T03:26:48.879Z,84.5
2023-05-18T03:31:54.990Z,84
2023-05-18T03:37:00.103Z,83.5
2023-05-18T03:42:06.192Z,84
2023-05-18T03:47:12.287Z,82
2023-05-18T03:52:18.412Z,82.5
2023-05-18T03:57:24.502Z,83.5
2023-05-18T04:02:30.583Z,81.5
2023-05-18T04:07:36.697Z,81
2023-05-18T04:12:42.787Z,81.5
2023-05-18T04:17:48.890Z,83.5
2023-05-18T04:22:54.979Z,82.5
2023-05-18T04:28:01.064Z,84
2023-05-18T04:33:07.176Z,83.5
2023-05-18T04:38:13.263Z,83
2023-05-18T04:43:18.371Z,84
2023-05-18T04:48:24.471Z,83.5
2023-05-18T04:53:30.581Z,84.5
2023-05-18T04:58:36.674Z,84
2023-05-18T05:03:42.762Z,83.5
2023-05-18T05:08:48.854Z,82.5
2023-05-18T05:13:54.960Z,83
2023-05-18T05:19:01.068Z,82.5
2023-05-18T05:24:07.149Z,81
2023-05-18T05:29:13.254Z,81.5
2023-05-18T05:34:19.346Z,81
2023-05-18T05:39:25.448Z,80
2023-05-18T05:44:31.548Z,79
2023-05-18T05:49:36.706Z,78
2023-05-18T05:54:42.772Z,78
2023-05-18T05:59:48.866Z,76.5
2023-05-18T06:04:54.942Z,78
2023-05-18T06:10:01.055Z,76.5
2023-05-18T06:15:07.153Z,77.5
2023-05-18T06:20:13.248Z,75.5
2023-05-18T06:25:19.336Z,75.5
2023-05-18T06:30:25.446Z,76.5
2023-05-18T06:35:31.528Z,76
2023-05-18T06:40:37.645Z,74
2023-05-18T06:45:43.728Z,74
2023-05-18T06:50:49.838Z,73
2023-05-18T06:55:54.937Z,73.5
2023-05-18T07:01:01.035Z,74
2023-05-18T07:06:07.122Z,72
2023-05-18T07:11:13.224Z,73
2023-05-18T07:16:19.314Z,70.5
2023-05-18T07:21:25.426Z,69
2023-05-18T07:26:31.519Z,67
2023-05-18T07:31:37.620Z,65.5
2023-05-18T07:36:43.706Z,66
2023-05-18T07:41:49.813Z,67.5
2023-05-18T07:46:55.904Z,66.5
2023-05-18T07:52:01.997Z,67
2023-05-18T07:57:08.094Z,65.5
2023-05-18T08:02:13.223Z,63.5
2023-05-18T08:07:19.304Z,63
2023-05-18T08:12:25.424Z,63
2023-05-18T08:17:31.553Z,59.5
2023-05-18T08:22:37.624Z,60
2023-05-18T08:27:43.689Z,57.5
2023-05-18T08:32:48.804Z,60
2023-05-18T08:37:54.912Z,57
2023-05-18T08:43:01.018Z,60
2023-05-18T08:48:07.095Z,57
2023-05-18T08:53:13.202Z,56
2023-05-18T08:58:19.288Z,54
2023-05-18T09:03:25.380Z,48.5
2023-05-18T09:08:31.551Z,49.5
2023-05-18T09:13:37.566Z,51
2023-05-18T09:18:43.664Z,46
2023-05-18T09:23:49.777Z,46.5
2023-05-18T09:28:55.848Z,49
2023-05-18T09:34:01.950Z,46.5
2023-05-18T09:39:07.078Z,50
2023-05-18T09:44:13.180Z,48
2023-05-18T09:49:19.250Z,46.5
2023-05-18T09:54:25.366Z,49
2023-05-18T09:59:31.438Z,50
2023-05-18T10:04:37.538Z,51
2023-05-18T10:09:43.644Z,49.5
2023-05-18T10:14:49.744Z,43.5
2023-05-18T10:19:55.820Z,39
2023-05-18T10:25:01.932Z,39
2023-05-18T10:30:08.020Z,42.5
2023-05-18T10:35:14.102Z,36.5
2023-05-18T10:40:20.304Z,37
2023-05-18T10:45:25.334Z,39.5
2023-05-18T10:50:31.430Z,40.5
2023-05-18T10:55:37.526Z,48.5
2023-05-18T11:00:43.655Z,45.5
2023-05-18T11:05:49.719Z,43.5
2023-05-18T11:10:55.802Z,48.5
2023-05-18T11:16:01.985Z,44
2023-05-18T11:21:07.989Z,37
2023-05-18T11:26:14.085Z,42
2023-05-18T11:31:20.274Z,43
2023-05-18T11:36:26.281Z,36.5
2023-05-18T11:41:32.395Z,40
2023-05-18T11:46:38.456Z,46.5
2023-05-18T11:51:43.576Z,41.5
2023-05-18T11:56:49.687Z,39
2023-05-18T12:01:55.771Z,41.5
2023-05-18T12:07:01.872Z,44.5
2023-05-18T12:12:07.965Z,43.5
2023-05-18T12:17:14.063Z,39
2023-05-18T12:22:20.242Z,44.5
2023-05-18T12:27:26.240Z,47
2023-05-18T12:32:32.361Z,42.5
2023-05-18T12:37:38.562Z,45
2023-05-18T12:42:44.543Z,47
2023-05-18T12:47:50.713Z,40
2023-05-18T12:52:56.827Z,42
2023-05-18T12:58:01.879Z,40
2023-05-18T13:03:07.930Z,39.5
2023-05-18T13:08:14.032Z,40.5
2023-05-18T13:13:20.299Z,42
2023-05-18T13:18:26.444Z,43.5
2023-05-18T13:23:32.375Z,43
2023-05-18T13:28:38.527Z,46
2023-05-18T13:33:44.576Z,41.5
2023-05-18T13:38:50.690Z,45
2023-05-18T13:43:56.795Z,42
2023-05-18T13:49:02.797Z,43
2023-05-18T13:54:08.926Z,47
2023-05-18T13:59:14.997Z,44.5
2023-05-18T14:04:20.100Z,46.5
2023-05-18T14:09:26.254Z,40.5
2023-05-18T14:14:32.310Z,44
2023-05-18T14:19:38.448Z,44.5
2023-05-18T14:24:44.502Z,44
2023-05-18T14:29:50.587Z,46.5
2023-05-18T14:34:56.678Z,46
2023-05-18T14:40:02.793Z,46
2023-05-18T14:45:08.924Z,46
2023-05-18T14:50:15.035Z,48.5
2023-05-18T14:55:21.120Z,47.5
2023-05-18T15:00:27.231Z,45
2023-05-18T15:05:33.245Z,46
2023-05-18T15:10:38.378Z,46
2023-05-18T15:15:44.455Z,43.5
2023-05-18T15:20:50.560Z,47.5
2023-05-18T15:25:56.655Z,46
2023-05-18T15:31:02.769Z,49
2023-05-18T15:36:08.844Z,49
2023-05-18T15:41:14.966Z,48.5
2023-05-18T15:46:21.048Z,48
2023-05-18T15:51:27.133Z,49.5
2023-05-18T15:56:33.222Z,49
2023-05-18T16:01:39.336Z,49
2023-05-18T16:06:45.428Z,48.5
2023-05-18T16:11:51.509Z,50
2023-05-18T16:16:56.637Z,49
2023-05-18T16:22:02.723Z,48
2023-05-18T16:27:08.835Z,46.5
2023-05-18T16:32:14.909Z,47.5
2023-05-18T16:37:21.013Z,45.5
2023-05-18T16:42:27.110Z,48
2023-05-18T16:47:33.219Z,42
2023-05-18T16:52:39.317Z,47
2023-05-18T16:57:45.404Z,44
2023-05-18T17:02:51.511Z,44
2023-05-18T17:07:57.570Z,42.5
2023-05-18T17:13:03.803Z,44
2023-05-18T17:18:09.781Z,43
2023-05-18T17:23:14.887Z,45.5
2023-05-18T17:28:21.049Z,43.5
2023-05-18T17:33:27.086Z,48.5
2023-05-18T17:38:33.165Z,50
2023-05-18T17:43:39.277Z,52.5
2023-05-18T17:48:45.388Z,53.5
2023-05-18T17:53:51.466Z,53.5
2023-05-18T17:58:57.563Z,55.5
2023-05-18T18:04:03.670Z,56
2023-05-18T18:09:09.736Z,57
2023-05-18T18:14:15.851Z,59.5
2023-05-18T18:19:21.963Z,61.5
2023-05-18T18:24:28.031Z,61.5
2023-05-18T18:29:33.187Z,63.5
2023-05-18T18:34:39.282Z,64.5
2023-05-18T18:39:45.337Z,66
2023-05-18T18:44:51.440Z,67.5
2023-05-18T18:49:57.537Z,69
2023-05-18T18:55:03.640Z,71
2023-05-18T19:05:15.828Z,70
2023-05-18T19:10:21.922Z,70.5
2023-05-18T19:15:28.033Z,70
2023-05-18T19:20:34.121Z,72
2023-05-18T19:25:40.232Z,71.5
2023-05-18T19:30:46.315Z,73
2023-05-18T19:35:51.429Z,73.5
2023-05-18T19:40:57.526Z,74
2023-05-18T19:46:03.621Z,73.5
2023-05-18T19:51:09.709Z,74
2023-05-18T19:56:15.796Z,73
2023-05-18T20:01:21.892Z,74.5
2023-05-18T20:06:27.982Z,74.5
2023-05-18T20:11:34.089Z,73
2023-05-18T20:16:40.182Z,74
2023-05-18T20:21:46.283Z,74
2023-05-18T20:26:52.393Z,74
2023-05-18T20:31:58.465Z,74.5
2023-05-18T20:37:04.572Z,75
2023-05-18T20:42:09.689Z,75
2023-05-18T20:47:15.782Z,75.5
2023-05-18T20:52:21.870Z,74.5
2023-05-18T20:57:27.962Z,75.5
2023-05-18T21:02:34.061Z,75
2023-05-18T21:07:40.171Z,75.5
2023-05-18T21:12:46.255Z,75.5
2023-05-18T21:17:52.435Z,75
2023-05-18T21:22:58.453Z,74.5
2023-05-18T21:28:04.550Z,75
2023-05-18T21:33:10.656Z,75.5
2023-05-18T21:38:16.759Z,75
2023-05-18T21:43:22.833Z,75
2023-05-18T21:48:27.951Z,76
2023-05-18T21:53:34.053Z,75
2023-05-18T21:58:40.150Z,75.5
2023-05-18T22:03:46.273Z,76.5
2023-05-18T22:08:52.353Z,76.5
2023-05-18T22:13:58.477Z,77.5
2023-05-18T22:19:04.527Z,77
2023-05-18T22:24:10.609Z,77
2023-05-18T22:29:16.723Z,78
2023-05-18T22:34:22.816Z,78
2023-05-18T22:39:28.908Z,77
2023-05-18T22:44:35.007Z,77.5
2023-05-18T22:49:41.198Z,77
2023-05-18T22:54:46.215Z,76.5
2023-05-18T22:59:52.313Z,76
2023-05-18T23:04:58.430Z,76.5
2023-05-18T23:10:04.499Z,76
2023-05-18T23:15:10.592Z,76
2023-05-18T23:20:16.691Z,74.5
2023-05-18T23:25:22.777Z,74.5
2023-05-18T23:30:28.891Z,74.5
2023-05-18T23:35:34.983Z,75
2023-05-18T23:40:41.085Z,75.5
2023-05-18T23:45:47.172Z,75.5
2023-05-18T23:50:53.268Z,74.5
2023-05-18T23:55:59.372Z,75
